Time;durP1;ratioP1;P1;durP2;ratioP2;P2;SDS_P1;SDS_P2;PMS_P1;PMS_P2;Temp;Humidity;BMP_temperature;BMP_pressure;BME280_temperature;BME280_humidity;BME280_pressure;Samples;Min_cycle;Max_cycle;Signal;HPM_P1;HPM_P2
2021/10/27 00:04:08;;;;;;;5.73;5.23;;;10.50;39.80;;;;;;10428870;28;20229;-70
2021/10/27 00:09:11;;;;;;;5.60;5.10;;;10.40;40.10;;;;;;10439991;28;20323;-72
2021/10/27 00:14:14;;;;;;;6.37;5.87;;;10.40;40.60;;;;;;10433224;28;20228;-74
2021/10/27 00:19:19;;;;;;;5.40;5.00;;;10.30;40.20;;;;;;10425618;28;20236;-74
2021/10/27 00:24:22;;;;;;;27.93;6.90;;;10.30;40.20;;;;;;10423553;28;20229;-74
2021/10/27 00:29:26;;;;;;;8.73;6.40;;;10.30;40.20;;;;;;10429593;28;20706;-74
2021/10/27 00:34:36;;;;;;;11.43;8.53;;;10.20;39.80;;;;;;10424771;28;20225;-70
2021/10/27 00:39:41;;;;;;;7.20;6.60;;;10.10;40.00;;;;;;10423400;28;20222;-70
2021/10/27 00:44:44;;;;;;;5.87;5.37;;;10.00;39.90;;;;;;10425011;28;20225;-70
2021/10/27 00:49:49;;;;;;;12.40;5.83;;;9.80;40.70;;;;;;10430721;28;20621;-74
2021/10/27 00:54:52;;;;;;;5.93;5.47;;;9.80;40.70;;;;;;10431683;28;20236;-74
2021/10/27 00:59:57;;;;;;;5.23;4.83;;;9.70;40.60;;;;;;10425385;28;20223;-74
2021/10/27 01:05:02;;;;;;;5.40;5.00;;;9.70;40.80;;;;;;10421177;28;20229;-74
2021/10/27 01:10:06;;;;;;;5.97;5.57;;;9.70;40.70;;;;;;10424302;28;20320;-72
2021/10/27 01:15:10;;;;;;;7.07;6.47;;;9.70;40.60;;;;;;10432610;28;20229;-71
2021/10/27 01:20:15;;;;;;;6.90;6.30;;;9.70;40.60;;;;;;10422959;28;20224;-71
2021/10/27 01:25:19;;;;;;;5.97;5.47;;;9.70;40.70;;;;;;10427023;28;20725;-71
2021/10/27 01:30:24;;;;;;;5.33;4.87;;;9.70;40.60;;;;;;10430619;28;20237;-71
2021/10/27 01:35:28;;;;;;;7.40;6.70;;;9.70;40.80;;;;;;10436819;28;20621;-73
2021/10/27 01:40:31;;;;;;;7.67;7.03;;;9.60;40.80;;;;;;10436563;28;20233;-73
2021/10/27 01:45:35;;;;;;;8.47;7.67;;;9.70;40.60;;;;;;10429641;28;20251;-74
2021/10/27 01:50:45;;;;;;;6.20;5.70;;;9.60;40.50;;;;;;10437372;28;20232;-73
2021/10/27 01:55:52;;;;;;;6.20;5.67;;;9.60;41.10;;;;;;10444594;28;20226;-74
2021/10/27 02:00:56;;;;;;;9.17;7.87;;;9.60;40.80;;;;;;10456838;28;20748;-73
2021/10/27 02:06:01;;;;;;;17.23;7.43;;;9.60;41.00;;;;;;10445464;28;20251;-73
2021/10/27 02:11:04;;;;;;;26.80;7.30;;;9.60;41.50;;;;;;10445959;28;20697;-72
2021/10/27 02:16:26;;;;;;;20.67;6.37;;;9.60;41.20;;;;;;10444071;28;20220;-73
2021/10/27 02:21:31;;;;;;;7.13;6.43;;;9.60;41.20;;;;;;10441499;28;20235;-72
2021/10/27 02:26:34;;;;;;;6.63;6.13;;;9.50;41.50;;;;;;10428315;28;20225;-73
2021/10/27 02:31:38;;;;;;;6.40;5.90;;;9.50;41.50;;;;;;10431401;28;20728;-71
2021/10/27 02:36:43;;;;;;;8.87;6.40;;;9.60;41.70;;;;;;10420155;28;20233;-71
2021/10/27 02:41:50;;;;;;;6.17;5.67;;;9.50;41.80;;;;;;10416192;28;20240;-71
2021/10/27 02:46:54;;;;;;;7.67;6.80;;;9.50;41.70;;;;;;10438358;28;20300;-73
2021/10/27 02:51:59;;;;;;;6.77;6.27;;;9.50;41.70;;;;;;10453408;28;20732;-73
2021/10/27 02:57:05;;;;;;;21.10;6.47;;;9.50;41.90;;;;;;10433921;28;20218;-72
2021/10/27 03:02:09;;;;;;;18.47;6.70;;;9.50;41.60;;;;;;10423109;28;20239;-74
2021/10/27 03:07:14;;;;;;;7.60;6.90;;;9.50;41.40;;;;;;10428386;28;20225;-74
2021/10/27 03:12:18;;;;;;;11.40;7.00;;;9.40;41.70;;;;;;10427952;28;20332;-74
2021/10/27 03:17:21;;;;;;;9.47;7.13;;;9.40;41.60;;;;;;10425082;28;20253;-74
2021/10/27 03:22:25;;;;;;;7.83;6.87;;;9.30;41.60;;;;;;10421824;28;20878;-71
2021/10/27 03:27:29;;;;;;;10.70;6.80;;;9.30;41.90;;;;;;10422216;28;20710;-71
2021/10/27 03:32:32;;;;;;;7.13;6.53;;;9.30;41.90;;;;;;10426046;28;20242;-71
2021/10/27 03:37:37;;;;;;;7.07;6.27;;;9.30;42.10;;;;;;10425927;28;20232;-71
2021/10/27 03:42:40;;;;;;;6.90;6.30;;;9.30;42.30;;;;;;10420347;28;20229;-71
2021/10/27 03:47:44;;;;;;;7.47;6.77;;;9.30;42.20;;;;;;10424559;28;20737;-71
2021/10/27 03:52:48;;;;;;;7.80;7.10;;;9.30;42.20;;;;;;10419007;28;20727;-71
2021/10/27 03:57:52;;;;;;;7.23;6.63;;;9.30;42.40;;;;;;10423293;28;20255;-70
2021/10/27 04:02:55;;;;;;;7.37;6.77;;;9.40;42.20;;;;;;10421196;28;20240;-75
2021/10/27 04:08:00;;;;;;;12.37;6.93;;;9.40;42.20;;;;;;10413460;28;20229;-71
2021/10/27 04:13:06;;;;;;;9.93;7.03;;;9.40;42.30;;;;;;10419253;28;20217;-72
2021/10/27 04:18:10;;;;;;;12.27;6.80;;;9.40;42.50;;;;;;10416942;28;20316;-71
2021/10/27 04:23:15;;;;;;;7.97;7.23;;;9.40;42.20;;;;;;10423700;28;20225;-71
2021/10/27 04:28:18;;;;;;;11.83;7.27;;;9.40;42.50;;;;;;10418146;28;20278;-71
2021/10/27 04:33:23;;;;;;;7.07;6.47;;;9.40;42.10;;;;;;10426767;28;20236;-71
2021/10/27 04:38:28;;;;;;;7.47;6.70;;;9.30;42.30;;;;;;10420137;28;20713;-71
2021/10/27 04:43:31;;;;;;;7.03;6.43;;;9.30;42.50;;;;;;10426534;28;20233;-71
2021/10/27 04:48:34;;;;;;;7.77;7.07;;;9.30;42.40;;;;;;10426355;28;20224;-71
2021/10/27 04:53:39;;;;;;;7.63;6.83;;;9.40;42.60;;;;;;10433832;28;20225;-71
2021/10/27 04:58:42;;;;;;;12.00;8.07;;;9.40;42.90;;;;;;10428947;28;20228;-73
2021/10/27 05:03:46;;;;;;;11.43;8.50;;;9.40;42.70;;;;;;10434078;28;20332;-70
2021/10/27 05:08:51;;;;;;;8.20;7.43;;;9.40;42.70;;;;;;10427843;28;20224;-71
2021/10/27 05:13:54;;;;;;;22.57;10.43;;;9.40;43.70;;;;;;10428001;28;20637;-71
2021/10/27 05:18:57;;;;;;;26.97;11.40;;;9.50;43.10;;;;;;10435208;28;20236;-70
2021/10/27 05:24:02;;;;;;;41.77;9.00;;;9.50;42.90;;;;;;10449336;28;20220;-79
2021/10/27 05:29:05;;;;;;;9.20;8.37;;;9.50;43.30;;;;;;10455551;28;20236;-79
2021/10/27 05:34:08;;;;;;;15.30;9.13;;;9.50;43.10;;;;;;10462742;28;20475;-76
2021/10/27 05:39:13;;;;;;;13.77;6.87;;;9.50;43.20;;;;;;10443931;28;20619;-75
2021/10/27 05:44:21;;;;;;;13.40;6.60;;;9.50;43.60;;;;;;10447519;28;20232;-76
2021/10/27 05:49:29;;;;;;;6.70;5.93;;;9.50;43.30;;;;;;10442209;28;20233;-77
2021/10/27 05:59:54;;;;;;;11.17;5.70;;;9.50;43.40;;;;;;10439977;28;20217;-70
2021/10/27 06:04:57;;;;;;;42.13;6.87;;;9.50;43.00;;;;;;10430350;28;20237;-72
2021/10/27 06:10:02;;;;;;;26.00;6.27;;;9.50;43.10;;;;;;10430568;28;20418;-72
2021/10/27 06:15:07;;;;;;;17.00;6.93;;;9.40;43.40;;;;;;10461210;22;20240;-85
2021/10/27 06:20:11;;;;;;;6.47;5.97;;;9.30;43.60;;;;;;10451890;28;20231;-85
2021/10/27 06:25:16;;;;;;;30.50;7.03;;;9.30;43.70;;;;;;10431444;28;20243;-85
2021/10/27 06:30:23;;;;;;;27.90;7.17;;;9.30;44.10;;;;;;10423017;28;20425;-85
2021/10/27 06:35:29;;;;;;;23.47;8.50;;;9.30;43.70;;;;;;10440141;28;20621;-85
2021/10/27 06:51:14;;;;;;;9.67;6.63;;;9.20;43.80;;;;;;10436909;28;20228;-85
2021/10/27 06:56:21;;;;;;;14.40;7.70;;;9.20;44.20;;;;;;10433638;28;20247;-85
2021/10/27 07:01:28;;;;;;;23.50;8.23;;;9.20;44.70;;;;;;10444757;28;20228;-85
2021/10/27 07:17:20;;;;;;;16.97;7.87;;;9.30;45.20;;;;;;10445057;28;20942;-85
2021/10/27 07:22:24;;;;;;;8.03;7.33;;;9.40;44.90;;;;;;10446462;28;20225;-85
2021/10/27 07:27:30;;;;;;;31.73;7.43;;;9.40;45.20;;;;;;10438689;28;20328;-84
2021/10/27 07:32:33;;;;;;;16.47;7.77;;;9.40;45.30;;;;;;10440242;28;20225;-84
2021/10/27 07:43:03;;;;;;;20.33;8.03;;;9.50;45.20;;;;;;10454962;28;20228;-85
2021/10/27 07:48:07;;;;;;;19.20;8.17;;;9.50;45.60;;;;;;10451398;28;20601;-84
2021/10/27 07:53:13;;;;;;;8.97;8.17;;;9.60;45.30;;;;;;10430886;28;20225;-85
2021/10/27 07:58:19;;;;;;;20.87;8.10;;;9.70;45.50;;;;;;10452091;28;20224;-84
2021/10/27 08:03:22;;;;;;;9.30;8.40;;;9.80;45.70;;;;;;10442614;28;20236;-85
2021/10/27 08:08:26;;;;;;;8.50;7.80;;;9.70;45.00;;;;;;10444535;28;20303;-85
2021/10/27 08:13:30;;;;;;;51.33;8.77;;;9.90;45.40;;;;;;10452840;28;20228;-84
2021/10/27 08:18:34;;;;;;;16.17;8.67;;;10.00;44.70;;;;;;10439229;28;20229;-85
2021/10/27 08:23:40;;;;;;;27.23;9.27;;;10.00;44.40;;;;;;10441551;28;20232;-85
2021/10/27 08:28:51;;;;;;;31.93;9.23;;;10.10;44.50;;;;;;10440156;28;20607;-85
2021/10/27 08:34:08;;;;;;;17.27;8.97;;;10.20;44.90;;;;;;10443988;28;20228;-84
2021/10/27 08:39:14;;;;;;;21.40;9.00;;;10.20;44.40;;;;;;10450698;28;20382;-84
2021/10/27 08:44:23;;;;;;;42.70;8.20;;;10.30;44.50;;;;;;10436996;28;23255;-84
2021/10/27 08:49:28;;;;;;;21.83;8.33;;;10.30;44.70;;;;;;10436118;28;20251;-84
2021/10/27 08:54:32;;;;;;;10.23;7.80;;;10.40;44.60;;;;;;10436319;28;20224;-85
2021/10/27 08:59:45;;;;;;;11.60;9.63;;;10.40;44.50;;;;;;10443272;28;20241;-84
2021/10/27 09:05:03;;;;;;;37.60;9.87;;;10.50;45.00;;;;;;10454402;28;20228;-84
2021/10/27 09:10:34;;;;;;;61.63;9.80;;;10.60;44.80;;;;;;10455481;28;20240;-84
2021/10/27 09:42:45;;;;;;;11.33;9.70;;;10.80;44.60;;;;;;10453920;28;20231;-84
2021/10/27 10:04:07;;;;;;;19.30;11.23;;;11.00;44.90;;;;;;10439434;28;20232;-85
2021/10/27 10:09:24;;;;;;;13.63;11.07;;;11.00;45.30;;;;;;10453106;28;20220;-85
2021/10/27 10:14:28;;;;;;;17.93;12.50;;;11.10;45.00;;;;;;10449439;28;20225;-84
2021/10/27 10:19:38;;;;;;;13.57;12.37;;;11.10;45.10;;;;;;10448260;28;20245;-84
2021/10/27 10:24:41;;;;;;;17.90;12.73;;;11.20;45.90;;;;;;10457857;28;20232;-84
2021/10/27 10:29:48;;;;;;;14.30;12.80;;;11.20;45.30;;;;;;10446278;28;20242;-84
2021/10/27 10:34:57;;;;;;;17.33;11.70;;;11.30;45.60;;;;;;10454684;28;20231;-85
2021/10/27 10:40:07;;;;;;;13.90;12.40;;;11.40;46.30;;;;;;10452786;28;20237;-85
2021/10/27 11:01:44;;;;;;;14.70;13.20;;;11.60;46.10;;;;;;10435727;28;20260;-84
2021/10/27 11:44:45;;;;;;;17.23;15.50;;;12.00;46.60;;;;;;10445118;28;20232;-84
2021/10/27 11:49:55;;;;;;;17.17;15.47;;;12.00;46.10;;;;;;10433612;28;20776;-84
2021/10/27 11:55:00;;;;;;;18.87;16.90;;;12.10;47.30;;;;;;10427692;28;20227;-84
2021/10/27 12:00:07;;;;;;;18.57;16.67;;;12.20;46.80;;;;;;10440114;28;20239;-84
2021/10/27 12:05:22;;;;;;;18.07;16.17;;;12.30;46.90;;;;;;10434808;28;20717;-84
2021/10/27 12:10:39;;;;;;;19.73;17.83;;;12.40;47.70;;;;;;10434874;28;20628;-84
2021/10/27 12:15:57;;;;;;;18.40;16.40;;;12.50;46.90;;;;;;10439802;28;20220;-84
2021/10/27 12:21:02;;;;;;;19.43;17.43;;;12.50;46.40;;;;;;10435947;28;20228;-84
2021/10/27 12:26:11;;;;;;;18.93;17.03;;;12.60;47.20;;;;;;10438011;28;20238;-84
2021/10/27 12:31:15;;;;;;;20.73;18.67;;;12.70;46.80;;;;;;10431404;28;20237;-84
2021/10/27 12:36:26;;;;;;;21.80;19.60;;;12.70;46.40;;;;;;10433216;28;20231;-84
2021/10/27 12:41:31;;;;;;;21.93;19.63;;;12.70;46.30;;;;;;10448017;28;20235;-84
2021/10/27 12:46:34;;;;;;;22.30;19.97;;;12.80;46.60;;;;;;10422576;28;20788;-84
2021/10/27 12:51:37;;;;;;;18.93;17.03;;;12.80;46.20;;;;;;10437187;28;20229;-84
2021/10/27 12:56:46;;;;;;;20.50;18.37;;;12.80;46.20;;;;;;10442162;28;20225;-84
2021/10/27 13:01:53;;;;;;;19.40;17.43;;;12.80;46.80;;;;;;10422104;28;20239;-84
2021/10/27 13:07:03;;;;;;;20.27;18.17;;;12.90;46.40;;;;;;10418026;28;20232;-85
2021/10/27 13:23:11;;;;;;;21.80;19.47;;;13.10;46.90;;;;;;10547986;27;20559;-69
2021/10/27 13:33:36;;;;;;;20.77;18.57;;;13.10;46.70;;;;;;10548394;28;20629;-69
2021/10/27 13:38:41;;;;;;;22.13;19.77;;;13.10;46.70;;;;;;10542600;28;20258;-69
2021/10/27 13:43:50;;;;;;;22.97;20.57;;;13.20;47.10;;;;;;10548010;28;20219;-69
2021/10/27 13:49:07;;;;;;;22.63;20.27;;;13.30;46.70;;;;;;10549558;28;20239;-69
2021/10/27 14:10:34;;;;;;;26.37;23.57;;;13.40;46.60;;;;;;10536724;28;20229;-69
2021/10/27 14:59:10;;;;;;;24.90;22.50;;;13.60;46.10;;;;;;10518321;28;20612;-69
2021/10/27 15:20:20;;;;;;;23.20;20.93;;;13.60;46.30;;;;;;10506984;28;20251;-69
2021/10/27 15:31:16;;;;;;;22.10;19.90;;;13.60;46.20;;;;;;10520728;28;20223;-69
2021/10/27 15:36:26;;;;;;;23.60;21.17;;;13.60;46.30;;;;;;10518769;28;20758;-68
2021/10/27 15:41:36;;;;;;;24.10;21.80;;;13.70;46.10;;;;;;10504376;28;20227;-69
2021/10/27 15:52:04;;;;;;;25.57;23.07;;;13.70;46.20;;;;;;10518258;28;20226;-66
2021/10/27 15:57:08;;;;;;;23.40;20.80;;;13.70;46.20;;;;;;10502722;28;20219;-66
2021/10/27 16:02:13;;;;;;;24.67;22.17;;;13.70;46.30;;;;;;10505641;28;20231;-66
2021/10/27 16:07:17;;;;;;;22.97;19.17;;;13.70;46.40;;;;;;10505181;28;20240;-67
2021/10/27 16:12:20;;;;;;;23.40;19.53;;;13.80;46.10;;;;;;10508416;28;20215;-66
2021/10/27 16:17:25;;;;;;;22.77;20.20;;;13.80;46.20;;;;;;10502755;28;20708;-66
2021/10/27 16:22:29;;;;;;;23.10;20.70;;;13.80;46.10;;;;;;10504741;28;20225;-67
2021/10/27 16:27:32;;;;;;;25.67;23.07;;;13.80;45.90;;;;;;10528683;28;20634;-67
2021/10/27 16:32:37;;;;;;;27.00;24.20;;;13.80;45.80;;;;;;10515896;28;20280;-68
2021/10/27 16:37:40;;;;;;;26.13;23.30;;;13.80;45.80;;;;;;10519930;28;20245;-68
2021/10/27 16:42:44;;;;;;;26.97;23.77;;;13.90;45.70;;;;;;10524438;28;20227;-67
2021/10/27 16:47:49;;;;;;;24.13;21.47;;;13.90;45.70;;;;;;10515470;28;20230;-69
2021/10/27 16:52:56;;;;;;;25.60;22.53;;;13.80;45.70;;;;;;10516867;28;20766;-69
2021/10/27 16:58:01;;;;;;;23.17;20.57;;;13.80;45.50;;;;;;10514027;28;20232;-69
2021/10/27 17:03:05;;;;;;;24.73;21.83;;;13.80;45.70;;;;;;10512505;28;20223;-69
2021/10/27 17:08:11;;;;;;;26.17;21.83;;;13.90;46.00;;;;;;10511053;28;20237;-69
2021/10/27 17:13:14;;;;;;;26.87;22.50;;;13.90;45.80;;;;;;10513301;28;20595;-69
2021/10/27 17:18:19;;;;;;;23.40;20.73;;;13.90;45.50;;;;;;10509959;28;20236;-69
2021/10/27 17:23:28;;;;;;;24.70;20.77;;;13.80;45.40;;;;;;10506827;28;20239;-70
2021/10/27 17:28:32;;;;;;;25.53;22.73;;;13.80;45.30;;;;;;10511036;28;20232;-69
2021/10/27 17:33:37;;;;;;;21.93;19.33;;;13.80;45.20;;;;;;10506904;28;20219;-69
2021/10/27 17:38:41;;;;;;;21.17;18.77;;;13.70;45.40;;;;;;10505969;28;20227;-69
2021/10/27 17:43:46;;;;;;;21.07;18.90;;;13.70;45.30;;;;;;10505478;28;20216;-69
2021/10/27 17:48:54;;;;;;;20.93;18.73;;;13.70;45.40;;;;;;10510505;28;20305;-70
2021/10/27 17:59:17;;;;;;;19.27;17.27;;;13.80;45.30;;;;;;10510318;28;20235;-69
2021/10/27 18:04:22;;;;;;;20.87;17.93;;;13.70;45.10;;;;;;10520844;28;20243;-69
2021/10/27 18:09:26;;;;;;;22.27;19.47;;;13.70;46.10;;;;;;10518957;28;20220;-69
2021/10/27 18:14:30;;;;;;;20.63;18.53;;;13.70;45.10;;;;;;10524736;28;20610;-69
2021/10/27 18:19:38;;;;;;;21.13;18.93;;;13.60;45.00;;;;;;10523422;28;20312;-69
2021/10/27 18:40:47;;;;;;;22.03;19.60;;;13.60;45.20;;;;;;10507262;28;20235;-69
2021/10/27 18:45:53;;;;;;;21.10;18.50;;;13.60;45.10;;;;;;10482487;28;20221;-69
2021/10/27 18:51:00;;;;;;;21.90;19.53;;;13.60;45.10;;;;;;10484393;28;20212;-70
2021/10/27 18:56:24;;;;;;;23.13;19.17;;;13.50;45.00;;;;;;10463732;28;20221;-69
2021/10/27 19:01:32;;;;;;;22.83;20.10;;;13.50;44.90;;;;;;10454479;28;20228;-69
2021/10/27 19:11:59;;;;;;;21.20;19.00;;;13.40;45.00;;;;;;10467174;28;20222;-69
2021/10/27 19:17:04;;;;;;;20.10;18.00;;;13.30;44.90;;;;;;10465776;28;20299;-69
2021/10/27 19:22:08;;;;;;;21.40;19.10;;;13.30;45.00;;;;;;10456539;28;20232;-69
2021/10/27 19:27:15;;;;;;;19.63;16.20;;;13.40;45.20;;;;;;10454830;28;20228;-70
2021/10/27 19:32:38;;;;;;;22.10;18.93;;;13.30;44.80;;;;;;10455379;28;20224;-70
2021/10/27 20:10:16;;;;;;;17.10;15.27;;;13.10;44.90;;;;;;10497867;28;20223;-70
2021/10/27 20:15:43;;;;;;;19.00;17.00;;;13.10;45.00;;;;;;10490590;28;20225;-70
2021/10/27 20:53:17;;;;;;;18.47;16.57;;;13.10;44.80;;;;;;10501026;28;20231;-69
2021/10/27 20:58:37;;;;;;;18.37;16.67;;;13.10;44.80;;;;;;10500926;28;20223;-70
2021/10/27 21:14:28;;;;;;;18.20;16.50;;;13.00;44.80;;;;;;10509509;28;20266;-70
2021/10/27 21:19:31;;;;;;;19.17;17.27;;;12.90;44.80;;;;;;10513991;28;20721;-69
2021/10/27 21:24:34;;;;;;;20.27;18.27;;;13.00;44.80;;;;;;10506600;28;20228;-69
2021/10/27 21:29:42;;;;;;;17.43;15.73;;;12.90;44.70;;;;;;10509900;28;20223;-70
2021/10/27 21:45:29;;;;;;;17.97;16.20;;;12.80;45.00;;;;;;10516017;28;20221;-69
2021/10/27 21:50:34;;;;;;;21.60;17.73;;;12.80;45.20;;;;;;10519680;28;20227;-69
2021/10/27 21:55:40;;;;;;;25.60;18.70;;;12.80;45.10;;;;;;10518223;28;20228;-71
2021/10/27 22:00:57;;;;;;;18.90;17.03;;;12.80;45.00;;;;;;10507060;28;20310;-70
2021/10/27 22:06:01;;;;;;;18.07;16.33;;;12.80;45.40;;;;;;10506270;28;20727;-72
2021/10/27 22:11:06;;;;;;;18.80;16.90;;;12.80;45.10;;;;;;10517817;28;20631;-69
2021/10/27 22:16:11;;;;;;;16.73;15.13;;;12.80;45.30;;;;;;10521114;28;20790;-69
2021/10/27 22:21:16;;;;;;;20.13;18.23;;;12.70;45.20;;;;;;10523684;28;20232;-69
2021/10/27 22:26:20;;;;;;;20.83;16.97;;;12.80;45.40;;;;;;10519726;28;20232;-69
2021/10/27 22:31:24;;;;;;;18.10;16.40;;;12.80;45.10;;;;;;10513008;28;20231;-69
2021/10/27 22:36:28;;;;;;;19.40;17.13;;;12.70;45.20;;;;;;10536123;28;20226;-70
2021/10/27 22:41:31;;;;;;;19.03;17.13;;;12.70;45.10;;;;;;10516158;28;20224;-70
2021/10/27 22:46:36;;;;;;;17.73;16.03;;;12.70;45.10;;;;;;10511648;28;20223;-70
2021/10/27 22:51:39;;;;;;;25.07;17.70;;;12.70;45.20;;;;;;10508878;28;20239;-70
2021/10/27 22:56:42;;;;;;;20.03;18.03;;;12.70;45.00;;;;;;10505686;28;20220;-71
2021/10/27 23:01:50;;;;;;;21.23;18.87;;;12.60;45.00;;;;;;10508170;28;21020;-71
2021/10/27 23:06:57;;;;;;;20.20;18.20;;;12.60;45.20;;;;;;10511085;28;20226;-69
2021/10/27 23:44:18;;;;;;;22.47;20.17;;;12.40;45.50;;;;;;10508930;28;20236;-69
2021/10/27 23:49:22;;;;;;;19.60;17.60;;;12.30;45.40;;;;;;10507614;28;20231;-69
2021/10/27 23:54:34;;;;;;;19.73;17.63;;;12.30;45.60;;;;;;10511933;28;20220;-69
